createdAt,value
2019-02-19T00:00:55.509Z,6.09
2019-02-19T00:01:55.476Z,6.14
2019-02-19T00:02:55.481Z,6.13
2019-02-19T00:03:55.499Z,6.18
2019-02-19T00:04:55.479Z,6.14
2019-02-19T00:05:55.496Z,6.26
2019-02-19T00:06:55.465Z,6.25
2019-02-19T00:07:55.447Z,6.19
2019-02-19T00:08:55.423Z,6.13
2019-02-19T00:09:55.434Z,6.22
2019-02-19T00:10:55.404Z,6.07
2019-02-19T00:11:55.397Z,6.09
2019-02-19T00:12:55.394Z,6.03
2019-02-19T00:13:55.373Z,5.93
2019-02-19T00:14:55.370Z,6.01
2019-02-19T00:15:55.360Z,5.53
2019-02-19T00:16:55.363Z,5.13
2019-02-19T00:17:55.339Z,5.12
2019-02-19T00:18:55.338Z,5.13
2019-02-19T00:19:55.333Z,5.04
2019-02-19T00:20:55.320Z,5.09
2019-02-19T00:21:55.314Z,5.14
2019-02-19T00:22:55.314Z,4.94
2019-02-19T00:23:55.292Z,4.84
2019-02-19T00:24:55.285Z,4.89
2019-02-19T00:25:55.273Z,5.10
2019-02-19T00:26:55.269Z,4.94
2019-02-19T00:27:55.283Z,5.02
2019-02-19T00:28:55.242Z,4.99
2019-02-19T00:29:55.298Z,4.95
2019-02-19T00:30:55.237Z,4.98
2019-02-19T00:31:55.260Z,4.96
2019-02-19T00:32:55.223Z,4.96
2019-02-19T00:33:55.196Z,4.96
2019-02-19T00:34:55.203Z,5.07
2019-02-19T00:35:55.206Z,5.12
2019-02-19T00:36:55.173Z,5.10
2019-02-19T00:37:55.167Z,5.17
2019-02-19T00:38:55.174Z,5.25
2019-02-19T00:39:55.195Z,5.16
2019-02-19T00:40:55.143Z,5.10
2019-02-19T00:41:55.153Z,5.14
2019-02-19T00:42:55.120Z,5.12
2019-02-19T00:43:55.156Z,5.10
2019-02-19T00:44:55.138Z,5.07
2019-02-19T00:45:55.161Z,5.10
2019-02-19T00:46:55.125Z,5.16
2019-02-19T00:47:55.118Z,5.07
2019-02-19T00:48:55.087Z,5.10
2019-02-19T00:49:55.051Z,5.10
2019-02-19T00:50:55.098Z,5.28
2019-02-19T00:51:55.049Z,5.25
2019-02-19T00:52:55.065Z,5.30
2019-02-19T00:53:55.015Z,5.34
2019-02-19T00:54:55.006Z,5.37
2019-02-19T00:55:54.993Z,5.37
2019-02-19T00:56:55.003Z,5.45
2019-02-19T00:57:56.244Z,5.53
2019-02-19T00:58:54.962Z,5.49
2019-02-19T00:59:54.953Z,5.49
2019-02-19T01:00:54.965Z,5.49
2019-02-19T01:01:54.941Z,5.52
2019-02-19T01:02:54.930Z,5.53
2019-02-19T01:03:54.942Z,5.59
2019-02-19T01:04:54.944Z,5.45
2019-02-19T01:05:54.901Z,5.43
2019-02-19T01:06:54.892Z,5.48
2019-02-19T01:07:54.882Z,5.49
2019-02-19T01:08:54.874Z,5.49
2019-02-19T01:09:54.873Z,5.55
2019-02-19T01:10:54.856Z,5.55
2019-02-19T01:11:54.845Z,5.56
2019-02-19T01:12:54.843Z,5.55
2019-02-19T01:13:54.825Z,5.57
2019-02-19T01:14:54.813Z,5.50
2019-02-19T01:15:54.806Z,5.52
2019-02-19T01:16:54.816Z,5.60
2019-02-19T01:17:54.816Z,5.53
2019-02-19T01:18:54.775Z,5.49
2019-02-19T01:19:54.776Z,5.46
2019-02-19T01:20:54.767Z,5.49
2019-02-19T01:21:54.751Z,5.43
2019-02-19T01:22:54.761Z,5.48
2019-02-19T01:23:54.734Z,5.53
2019-02-19T01:24:54.722Z,5.52
2019-02-19T01:25:54.721Z,5.49
2019-02-19T01:26:54.734Z,5.52
2019-02-19T01:27:54.724Z,5.45
2019-02-19T01:28:54.716Z,5.38
2019-02-19T01:29:54.697Z,5.46
2019-02-19T01:30:54.663Z,5.48
2019-02-19T01:31:54.665Z,5.37
2019-02-19T01:32:54.658Z,5.37
2019-02-19T01:33:54.648Z,5.38
2019-02-19T01:34:54.629Z,5.27
2019-02-19T01:35:54.628Z,5.30
2019-02-19T01:36:54.615Z,5.35
2019-02-19T01:37:54.603Z,5.31
2019-02-19T01:38:54.603Z,5.30
2019-02-19T01:39:54.600Z,5.17
2019-02-19T01:40:54.584Z,4.99
2019-02-19T01:41:54.572Z,4.99
2019-02-19T01:42:54.549Z,4.92
2019-02-19T01:43:54.567Z,4.94
2019-02-19T01:44:54.567Z,4.89
2019-02-19T01:45:54.528Z,4.94
2019-02-19T01:46:54.532Z,4.94
2019-02-19T01:47:54.526Z,4.96
2019-02-19T01:48:54.538Z,4.79
2019-02-19T01:49:54.569Z,4.69
2019-02-19T01:50:54.480Z,4.79
2019-02-19T01:51:54.511Z,4.75
2019-02-19T01:52:54.484Z,4.83
2019-02-19T01:53:54.450Z,4.83
2019-02-19T01:54:54.478Z,4.84
2019-02-19T01:55:54.456Z,4.72
2019-02-19T01:56:54.445Z,4.77
2019-02-19T01:57:54.418Z,4.65
2019-02-19T01:58:54.416Z,4.69
2019-02-19T01:59:54.404Z,4.52
2019-02-19T02:00:54.382Z,4.64
2019-02-19T02:01:54.391Z,4.70
2019-02-19T02:02:54.383Z,4.77
2019-02-19T02:03:54.362Z,4.80
2019-02-19T02:04:54.349Z,4.94
2019-02-19T02:05:54.348Z,4.98
2019-02-19T02:06:54.353Z,4.98
2019-02-19T02:07:54.325Z,4.95
2019-02-19T02:08:54.313Z,4.96
2019-02-19T02:09:54.308Z,5.02
2019-02-19T02:10:54.290Z,5.16
2019-02-19T02:11:54.281Z,5.14
2019-02-19T02:12:54.296Z,5.10
2019-02-19T02:13:54.264Z,4.98
2019-02-19T02:14:54.258Z,5.05
2019-02-19T02:15:54.251Z,5.13
2019-02-19T02:16:54.235Z,5.07
2019-02-19T02:17:54.256Z,5.05
2019-02-19T02:18:54.253Z,5.09
2019-02-19T02:19:54.237Z,5.01
2019-02-19T02:20:54.229Z,5.07
2019-02-19T02:21:54.183Z,5.04
2019-02-19T02:22:54.191Z,4.95
2019-02-19T02:23:54.202Z,4.65
2019-02-19T02:24:54.168Z,4.64
2019-02-19T02:25:54.175Z,4.39
2019-02-19T02:26:54.137Z,4.29
2019-02-19T02:27:54.171Z,4.34
2019-02-19T02:28:54.143Z,4.15
2019-02-19T02:29:54.114Z,4.08
2019-02-19T02:30:54.132Z,4.01
2019-02-19T02:31:54.117Z,4.00
2019-02-19T02:32:54.105Z,4.06
2019-02-19T02:33:54.074Z,4.03
2019-02-19T02:34:54.077Z,4.12
2019-02-19T02:35:54.083Z,4.03
2019-02-19T02:36:54.081Z,3.96
2019-02-19T02:38:02.687Z,4.01
2019-02-19T02:39:58.531Z,3.85
2019-02-19T02:40:58.485Z,3.82
2019-02-19T02:41:58.479Z,3.80
2019-02-19T02:42:58.479Z,3.79
2019-02-19T02:43:58.460Z,3.67
2019-02-19T02:44:58.456Z,3.70
2019-02-19T02:45:58.455Z,3.67
2019-02-19T02:46:58.460Z,3.64
2019-02-19T02:47:58.438Z,3.62
2019-02-19T02:48:58.418Z,3.67
2019-02-19T02:49:58.426Z,3.50
2019-02-19T02:50:58.388Z,3.57
2019-02-19T02:51:58.393Z,3.64
2019-02-19T02:52:58.432Z,3.54
2019-02-19T02:53:58.382Z,3.57
2019-02-19T02:54:58.369Z,3.62
2019-02-19T02:55:58.358Z,3.49
2019-02-19T03:13:33.986Z,3.62
2019-02-19T03:14:33.940Z,3.43
2019-02-19T03:15:33.938Z,3.39
2019-02-19T03:16:33.940Z,3.42
2019-02-19T03:17:33.905Z,3.27
2019-02-19T03:18:33.895Z,3.40
2019-02-19T03:19:33.890Z,3.61
2019-02-19T03:20:33.882Z,3.72
2019-02-19T03:21:33.853Z,3.67
2019-02-19T03:22:33.861Z,3.71
2019-02-19T03:23:33.836Z,3.75
2019-02-19T03:24:33.827Z,3.68
2019-02-19T03:25:33.801Z,3.58
2019-02-19T03:26:33.795Z,3.58
2019-02-19T03:27:33.793Z,3.49
2019-02-19T03:28:33.755Z,3.40
2019-02-19T03:29:33.743Z,3.31
2019-02-19T03:30:33.738Z,3.34
2019-02-19T03:31:33.735Z,3.47
2019-02-19T03:32:33.717Z,3.54
2019-02-19T03:33:33.721Z,3.67
2019-02-19T03:34:33.696Z,3.67
2019-02-19T03:35:33.705Z,3.79
2019-02-19T03:36:33.696Z,3.70
2019-02-19T03:37:33.673Z,3.71
2019-02-19T03:38:33.642Z,3.79
2019-02-19T03:39:33.625Z,3.83
2019-02-19T03:40:33.619Z,3.78
2019-02-19T03:41:33.626Z,3.85
2019-02-19T03:42:33.634Z,3.79
2019-02-19T03:43:33.617Z,3.70
2019-02-19T03:44:33.586Z,3.67
2019-02-19T03:45:33.590Z,3.62
2019-02-19T03:46:33.555Z,3.57
2019-02-19T03:47:33.565Z,3.47
2019-02-19T03:48:33.556Z,3.71
2019-02-19T03:49:33.525Z,3.60
2019-02-19T03:50:33.513Z,3.54
2019-02-19T03:51:33.502Z,3.40
2019-02-19T03:52:33.519Z,3.47
2019-02-19T03:53:33.527Z,3.39
2019-02-19T03:54:33.498Z,3.43
2019-02-19T03:55:33.470Z,3.46
2019-02-19T03:56:33.442Z,3.46
2019-02-19T03:57:33.448Z,3.49
2019-02-19T03:58:33.434Z,3.28
2019-02-19T03:59:33.450Z,3.27
2019-02-19T04:00:33.427Z,3.36
2019-02-19T04:01:33.394Z,3.47
2019-02-19T04:02:33.381Z,3.44
2019-02-19T04:03:33.396Z,3.53
2019-02-19T04:04:33.369Z,3.47
2019-02-19T04:05:33.366Z,3.57
2019-02-19T04:06:33.363Z,3.46
2019-02-19T04:07:33.328Z,3.53
2019-02-19T04:08:33.338Z,3.54
2019-02-19T04:09:33.308Z,3.67
2019-02-19T04:10:33.309Z,3.70
2019-02-19T04:11:33.319Z,3.68
2019-02-19T04:12:33.272Z,3.67
2019-02-19T04:13:33.265Z,3.60
2019-02-19T04:14:33.273Z,3.43
2019-02-19T04:15:33.248Z,3.54
2019-02-19T04:16:33.235Z,3.65
2019-02-19T04:17:33.256Z,3.70
2019-02-19T04:18:33.212Z,3.52
2019-02-19T04:19:33.218Z,3.43
2019-02-19T04:20:33.224Z,3.49
2019-02-19T04:21:33.201Z,3.50
2019-02-19T04:22:33.196Z,3.44
2019-02-19T04:23:33.183Z,3.34
2019-02-19T04:24:33.195Z,3.33
2019-02-19T04:25:33.158Z,3.52
2019-02-19T04:26:33.137Z,3.50
2019-02-19T04:27:33.134Z,3.54
2019-02-19T04:28:33.145Z,3.50
2019-02-19T04:29:33.132Z,3.42
2019-02-19T04:30:33.140Z,3.47
2019-02-19T04:31:33.125Z,3.53
2019-02-19T04:32:33.089Z,3.61
2019-02-19T04:33:33.076Z,3.62
2019-02-19T04:34:33.075Z,3.62
2019-02-19T04:35:41.703Z,3.62
2019-02-19T04:37:37.554Z,3.36
2019-02-19T04:38:37.548Z,3.39
2019-02-19T04:39:37.521Z,3.33
2019-02-19T04:40:37.484Z,3.27
2019-02-19T04:41:37.445Z,3.16
2019-02-19T04:42:37.460Z,3.09
2019-02-19T04:43:37.456Z,2.98
2019-02-19T04:44:37.415Z,3.02
2019-02-19T04:45:37.419Z,2.88
2019-02-19T04:46:37.450Z,2.76
2019-02-19T04:47:37.402Z,2.84
2019-02-19T04:48:37.399Z,2.79
2019-02-19T04:49:37.366Z,2.79
2019-02-19T04:50:37.394Z,2.79
2019-02-19T04:51:37.345Z,2.92
2019-02-19T04:52:37.336Z,2.91
2019-02-19T04:53:37.333Z,2.95
2019-02-19T04:54:37.327Z,3.02
2019-02-19T04:55:37.313Z,3.12
2019-02-19T04:56:37.298Z,3.18
2019-02-19T04:57:37.312Z,3.16
2019-02-19T04:58:37.264Z,3.15
2019-02-19T04:59:37.266Z,3.16
2019-02-19T05:00:37.251Z,3.24
2019-02-19T05:01:37.242Z,3.20
2019-02-19T05:02:37.260Z,3.27
2019-02-19T05:03:37.232Z,3.24
2019-02-19T05:04:37.200Z,3.25
2019-02-19T05:05:37.211Z,3.27
2019-02-19T05:06:37.193Z,3.39
2019-02-19T05:07:37.173Z,3.40
2019-02-19T05:08:37.185Z,3.43
2019-02-19T05:09:37.149Z,3.39
2019-02-19T05:10:37.139Z,3.18
2019-02-19T05:11:37.156Z,3.12
2019-02-19T05:12:37.111Z,3.20
2019-02-19T05:13:37.115Z,3.23
2019-02-19T05:14:37.126Z,3.25
2019-02-19T05:15:37.088Z,3.28
2019-02-19T05:16:40.737Z,3.27
2019-02-19T05:17:37.078Z,3.27
2019-02-19T05:18:37.052Z,3.31
2019-02-19T05:19:37.063Z,3.28
2019-02-19T05:20:37.055Z,3.28
2019-02-19T05:21:37.013Z,3.24
2019-02-19T05:22:37.014Z,3.05
2019-02-19T05:23:37.020Z,3.18
2019-02-19T05:24:37.009Z,3.20
2019-02-19T05:25:36.983Z,3.13
2019-02-19T05:26:36.997Z,3.06
2019-02-19T05:27:36.954Z,3.02
2019-02-19T05:28:36.936Z,3.07
2019-02-19T05:29:36.929Z,3.09
2019-02-19T05:30:36.944Z,3.20
2019-02-19T05:31:36.938Z,3.15
2019-02-19T05:32:36.920Z,3.09
2019-02-19T05:33:36.892Z,3.03
2019-02-19T05:34:36.880Z,2.98
2019-02-19T05:35:36.868Z,2.97
2019-02-19T05:36:36.867Z,2.92
2019-02-19T05:37:36.897Z,2.92
2019-02-19T05:38:36.827Z,2.76
2019-02-19T05:39:36.817Z,2.82
2019-02-19T05:40:36.806Z,2.81
2019-02-19T05:41:36.828Z,2.73
2019-02-19T05:42:36.795Z,2.71
2019-02-19T05:43:36.826Z,2.73
2019-02-19T05:44:36.770Z,2.58
2019-02-19T05:45:36.765Z,2.48
2019-02-19T05:46:36.747Z,2.51
2019-02-19T05:47:36.747Z,2.45
2019-02-19T05:48:36.730Z,2.41
2019-02-19T05:49:36.737Z,2.41
2019-02-19T05:50:36.692Z,2.48
2019-02-19T05:51:36.684Z,2.41
2019-02-19T05:52:36.681Z,2.41
2019-02-19T05:53:36.681Z,2.48
2019-02-19T05:54:36.672Z,2.55
2019-02-19T05:55:36.646Z,2.51
2019-02-19T05:56:36.639Z,2.58
2019-02-19T05:57:36.659Z,2.53
2019-02-19T05:58:36.636Z,2.53
2019-02-19T05:59:36.639Z,2.53
2019-02-19T06:00:36.632Z,2.49
2019-02-19T06:01:36.589Z,2.38
2019-02-19T06:02:36.604Z,2.37
2019-02-19T06:03:36.563Z,2.45
2019-02-19T06:04:36.685Z,2.44
2019-02-19T06:05:36.551Z,2.40
2019-02-19T06:06:36.529Z,2.45
2019-02-19T06:07:36.522Z,2.35
2019-02-19T06:08:36.533Z,2.46
2019-02-19T06:09:36.484Z,2.69
2019-02-19T06:10:36.510Z,2.69
2019-02-19T06:11:36.526Z,2.67
2019-02-19T06:12:36.529Z,2.74
2019-02-19T06:13:36.436Z,2.79
2019-02-19T06:14:36.432Z,2.74
2019-02-19T06:15:36.408Z,2.73
2019-02-19T06:16:36.404Z,2.73
2019-02-19T06:17:36.389Z,2.69
2019-02-19T06:18:36.380Z,2.58
2019-02-19T06:19:36.369Z,2.52
2019-02-19T06:20:36.402Z,2.44
2019-02-19T06:21:36.373Z,2.44
2019-02-19T06:22:36.367Z,2.56
2019-02-19T06:23:36.383Z,2.59
2019-02-19T06:24:36.345Z,2.45
2019-02-19T06:25:36.338Z,2.49
2019-02-19T06:26:36.307Z,2.63
2019-02-19T06:27:36.332Z,2.52
2019-02-19T06:28:36.265Z,2.58
2019-02-19T06:29:36.251Z,2.58
2019-02-19T06:30:36.242Z,2.55
2019-02-19T06:31:36.243Z,2.56
2019-02-19T06:32:36.258Z,2.63
2019-02-19T06:33:36.244Z,2.66
2019-02-19T06:34:36.204Z,2.48
2019-02-19T06:35:36.184Z,2.45
2019-02-19T06:36:36.189Z,2.52
2019-02-19T06:37:36.173Z,2.48
2019-02-19T06:38:36.157Z,2.53
2019-02-19T06:39:36.148Z,2.51
2019-02-19T06:40:36.131Z,2.64
2019-02-19T06:41:36.126Z,2.51
2019-02-19T06:42:36.116Z,2.48
2019-02-19T06:43:36.113Z,2.48
2019-02-19T06:44:36.087Z,2.44
2019-02-19T06:45:36.067Z,2.30
2019-02-19T06:46:36.062Z,2.38
2019-02-19T06:47:36.054Z,2.44
2019-02-19T06:48:36.058Z,2.41
2019-02-19T06:49:36.023Z,2.40
2019-02-19T06:50:36.053Z,2.34
2019-02-19T06:51:35.999Z,2.44
2019-02-19T06:52:36.004Z,2.46
2019-02-19T06:53:35.979Z,2.48
2019-02-19T06:54:35.961Z,2.40
2019-02-19T06:55:35.965Z,2.48
2019-02-19T06:56:35.945Z,2.51
2019-02-19T06:57:44.638Z,2.61
2019-02-19T06:59:40.406Z,2.79
2019-02-19T07:00:49.868Z,3.00
2019-02-19T07:02:44.859Z,3.18
2019-02-19T07:03:44.830Z,3.24
2019-02-19T07:04:44.847Z,3.27
2019-02-19T07:05:44.816Z,3.40
2019-02-19T07:06:44.804Z,3.49
2019-02-19T07:07:44.801Z,3.50
2019-02-19T07:08:44.785Z,3.70
2019-02-19T07:09:44.790Z,3.68
2019-02-19T07:10:44.771Z,3.68
2019-02-19T07:11:44.740Z,3.71
2019-02-19T07:12:44.742Z,3.89
2019-02-19T07:13:44.719Z,3.97
2019-02-19T07:14:44.710Z,3.98
2019-02-19T07:15:44.722Z,4.15
2019-02-19T07:16:44.715Z,4.21
2019-02-19T07:17:44.666Z,4.37
2019-02-19T07:18:44.660Z,4.40
2019-02-19T07:19:44.666Z,4.42
2019-02-19T07:20:44.648Z,4.59
2019-02-19T07:21:44.641Z,4.58
2019-02-19T07:22:44.619Z,4.61
2019-02-19T07:23:44.614Z,4.58
2019-02-19T07:24:44.605Z,4.62
2019-02-19T07:25:44.580Z,4.70
2019-02-19T07:26:44.606Z,4.67
2019-02-19T07:27:44.578Z,4.70
2019-02-19T07:28:44.554Z,4.70
2019-02-19T07:29:44.541Z,4.73
2019-02-19T07:30:44.533Z,4.88
2019-02-19T07:31:44.518Z,4.95
2019-02-19T07:32:44.523Z,4.96
2019-02-19T07:33:44.508Z,5.10
2019-02-19T07:34:44.504Z,5.12
2019-02-19T07:35:44.529Z,5.13
2019-02-19T07:36:44.479Z,5.07
2019-02-19T07:37:44.471Z,5.12
2019-02-19T07:38:44.453Z,5.12
2019-02-19T07:39:44.514Z,5.12
2019-02-19T07:40:44.557Z,5.13
2019-02-19T07:41:44.423Z,5.17
2019-02-19T07:42:44.446Z,5.14
2019-02-19T07:43:44.482Z,5.12
2019-02-19T07:44:45.320Z,5.27
2019-02-19T07:45:44.415Z,5.40
2019-02-19T07:46:44.391Z,5.32
2019-02-19T07:47:44.359Z,5.37
2019-02-19T07:48:44.362Z,5.45
2019-02-19T07:49:44.371Z,5.48
2019-02-19T07:50:44.326Z,5.52
2019-02-19T07:51:44.347Z,5.52
2019-02-19T07:52:44.398Z,5.63
2019-02-19T07:53:44.295Z,5.63
2019-02-19T07:54:44.289Z,5.63
2019-02-19T07:55:44.318Z,5.68
2019-02-19T07:56:44.291Z,5.86
2019-02-19T07:57:44.367Z,5.89
2019-02-19T07:58:44.276Z,5.98
2019-02-19T07:59:44.310Z,6.13
2019-02-19T08:00:44.293Z,6.04
2019-02-19T08:01:44.217Z,6.11
2019-02-19T08:02:44.214Z,6.18
2019-02-19T08:03:44.252Z,6.13
2019-02-19T08:04:44.216Z,6.16
2019-02-19T08:05:44.186Z,6.18
2019-02-19T08:06:44.179Z,6.11
2019-02-19T08:07:44.190Z,6.10
2019-02-19T08:08:44.150Z,6.26
2019-02-19T08:09:44.148Z,6.18
2019-02-19T08:10:44.152Z,6.28
2019-02-19T08:11:44.124Z,6.40
2019-02-19T08:12:44.116Z,6.38
2019-02-19T08:13:44.135Z,6.36
2019-02-19T08:14:44.097Z,6.44
2019-02-19T08:15:44.091Z,6.44
2019-02-19T08:16:44.076Z,6.33
2019-02-19T08:17:44.079Z,6.40
2019-02-19T08:18:44.070Z,6.47
2019-02-19T08:19:44.083Z,6.38
2019-02-19T08:20:44.051Z,6.56
2019-02-19T08:21:44.046Z,6.48
2019-02-19T08:22:44.031Z,6.66
2019-02-19T08:23:44.020Z,6.56
2019-02-19T08:24:44.004Z,6.56
2019-02-19T08:25:44.002Z,6.61
2019-02-19T08:26:44.006Z,6.50
2019-02-19T08:27:43.995Z,6.47
2019-02-19T08:28:44.008Z,6.53
2019-02-19T08:29:43.963Z,6.53
2019-02-19T08:30:43.948Z,6.54
2019-02-19T08:31:43.937Z,6.58
2019-02-19T08:32:43.931Z,6.54
2019-02-19T08:33:43.953Z,6.50
2019-02-19T08:34:43.949Z,6.48
2019-02-19T08:35:43.939Z,6.44
2019-02-19T08:36:43.902Z,6.43
2019-02-19T08:37:43.901Z,6.51
2019-02-19T08:38:43.913Z,6.48
2019-02-19T08:39:43.881Z,6.58
2019-02-19T08:40:43.901Z,6.54
2019-02-19T08:41:43.843Z,6.62
2019-02-19T08:42:43.839Z,6.65
2019-02-19T08:43:43.831Z,6.66
2019-02-19T08:44:43.824Z,6.62
2019-02-19T08:45:43.828Z,6.71
2019-02-19T08:46:43.816Z,6.79
2019-02-19T08:47:43.791Z,6.83
2019-02-19T08:48:43.784Z,6.89
2019-02-19T08:49:43.781Z,6.95
2019-02-19T08:50:43.769Z,6.95
2019-02-19T08:51:43.758Z,7.02
2019-02-19T08:52:43.770Z,7.15
2019-02-19T08:53:43.755Z,7.20
2019-02-19T08:54:43.729Z,7.31
2019-02-19T08:55:43.723Z,7.31
2019-02-19T08:56:43.728Z,7.31
2019-02-19T08:57:43.707Z,7.26
2019-02-19T08:58:43.713Z,7.26
2019-02-19T08:59:43.697Z,7.34
2019-02-19T09:00:43.698Z,7.29
2019-02-19T09:01:43.689Z,7.38
2019-02-19T09:02:43.665Z,7.35
2019-02-19T09:03:43.663Z,7.47
2019-02-19T09:04:43.648Z,7.50
2019-02-19T09:05:43.650Z,7.45
2019-02-19T09:06:43.665Z,7.58
2019-02-19T09:07:43.639Z,7.59
2019-02-19T09:08:43.615Z,7.72
2019-02-19T09:09:43.599Z,7.69
2019-02-19T09:10:43.607Z,7.63
2019-02-19T09:11:43.591Z,7.63
2019-02-19T09:12:43.601Z,7.66
2019-02-19T09:13:43.585Z,7.72
2019-02-19T09:14:43.603Z,7.75
2019-02-19T09:15:43.541Z,7.71
2019-02-19T09:16:43.572Z,7.74
2019-02-19T09:17:51.601Z,7.84
2019-02-19T09:18:43.561Z,7.84
2019-02-19T09:19:43.520Z,7.85
2019-02-19T09:20:43.501Z,7.93
2019-02-19T09:21:43.507Z,7.89
2019-02-19T09:22:43.482Z,7.92
2019-02-19T09:23:43.474Z,8.03
2019-02-19T09:24:43.477Z,7.99
2019-02-19T09:25:43.475Z,7.99
2019-02-19T09:26:43.475Z,8.07
2019-02-19T09:27:43.456Z,8.10
2019-02-19T09:28:43.447Z,8.15
2019-02-19T09:29:43.445Z,8.18
2019-02-19T09:30:43.438Z,8.25
2019-02-19T09:31:43.426Z,8.28
2019-02-19T09:32:43.407Z,8.32
2019-02-19T09:33:43.421Z,8.32
2019-02-19T09:34:43.377Z,8.44
2019-02-19T09:35:43.395Z,8.50
2019-02-19T09:36:43.389Z,8.47
2019-02-19T09:37:43.408Z,8.48
2019-02-19T09:38:43.383Z,8.51
2019-02-19T09:39:43.353Z,8.60
2019-02-19T09:40:43.334Z,8.60
2019-02-19T09:41:43.327Z,8.63
2019-02-19T09:42:43.329Z,8.66
2019-02-19T09:43:43.308Z,8.65
2019-02-19T09:44:43.326Z,8.63
2019-02-19T09:45:43.291Z,8.72
2019-02-19T09:46:43.324Z,8.66
2019-02-19T09:47:43.277Z,8.78
2019-02-19T09:48:43.271Z,8.88
2019-02-19T09:49:43.282Z,8.96
2019-02-19T09:50:43.264Z,8.97
2019-02-19T09:51:43.266Z,9.10
2019-02-19T09:52:43.289Z,9.09
2019-02-19T09:53:43.264Z,9.30
2019-02-19T09:54:43.220Z,9.32
2019-02-19T09:55:43.860Z,9.38
2019-02-19T09:56:43.209Z,9.46
2019-02-19T09:57:43.214Z,9.48
2019-02-19T09:58:43.189Z,9.52
2019-02-19T09:59:43.179Z,9.67
2019-02-19T10:00:43.227Z,9.66
2019-02-19T10:01:43.181Z,9.60
2019-02-19T10:02:43.961Z,9.63
2019-02-19T10:03:43.165Z,9.63
2019-02-19T10:04:43.149Z,9.78
2019-02-19T10:05:43.139Z,9.67
2019-02-19T10:06:43.153Z,9.67
2019-02-19T10:07:43.121Z,9.71
2019-02-19T10:08:43.165Z,9.63
2019-02-19T10:09:43.116Z,9.70
2019-02-19T10:10:43.102Z,9.63
2019-02-19T10:11:43.120Z,9.67
2019-02-19T10:12:43.092Z,9.68
2019-02-19T10:13:43.112Z,9.71
2019-02-19T10:14:43.077Z,9.68
2019-02-19T10:15:43.103Z,9.57
2019-02-19T10:16:43.063Z,9.60
2019-02-19T10:17:43.066Z,9.67
2019-02-19T10:18:43.070Z,9.67
2019-02-19T10:19:43.219Z,9.64
2019-02-19T10:20:43.019Z,9.67
2019-02-19T10:21:43.027Z,9.70
2019-02-19T10:22:43.053Z,9.58
2019-02-19T10:23:43.009Z,9.64
2019-02-19T10:24:42.994Z,9.48
2019-02-19T10:25:44.637Z,9.60
2019-02-19T10:26:42.990Z,9.66
2019-02-19T10:27:42.996Z,9.60
2019-02-19T10:28:43.249Z,9.57
2019-02-19T10:29:42.965Z,9.49
2019-02-19T10:30:42.975Z,9.52
2019-02-19T10:31:42.968Z,9.46
2019-02-19T10:32:42.945Z,9.45
2019-02-19T10:33:42.963Z,9.38
2019-02-19T10:34:42.925Z,9.42
2019-02-19T10:35:42.942Z,9.50
2019-02-19T10:36:42.921Z,9.40
2019-02-19T10:37:42.930Z,9.39
2019-02-19T10:38:42.908Z,9.46
2019-02-19T10:39:42.915Z,9.38
2019-02-19T10:40:42.879Z,9.42
2019-02-19T10:41:42.885Z,9.35
2019-02-19T10:42:42.867Z,9.39
2019-02-19T10:43:42.854Z,9.48
2019-02-19T10:44:42.856Z,9.34
2019-02-19T10:45:42.866Z,9.34
2019-02-19T10:46:42.845Z,9.38
2019-02-19T10:47:42.826Z,9.39
2019-02-19T10:48:43.738Z,9.40
2019-02-19T10:49:42.837Z,9.50
2019-02-19T10:50:42.813Z,9.35
2019-02-19T10:51:42.791Z,9.39
2019-02-19T10:52:42.789Z,9.42
2019-02-19T10:53:42.781Z,9.38
2019-02-19T10:54:42.794Z,9.45
2019-02-19T10:55:42.776Z,9.40
2019-02-19T10:56:42.767Z,9.43
2019-02-19T10:57:42.748Z,9.40
2019-02-19T10:58:42.745Z,9.39
2019-02-19T10:59:42.752Z,9.42
2019-02-19T11:00:42.732Z,9.38
2019-02-19T11:01:42.716Z,9.42
2019-02-19T11:02:42.711Z,9.52
2019-02-19T11:03:42.736Z,9.49
2019-02-19T11:04:42.728Z,9.49
2019-02-19T11:05:42.698Z,9.43
2019-02-19T11:06:42.684Z,9.38
2019-02-19T11:07:42.686Z,9.49
2019-02-19T11:08:42.667Z,9.50
2019-02-19T11:09:42.686Z,9.38
2019-02-19T11:10:42.658Z,9.34
2019-02-19T11:11:42.680Z,9.40
2019-02-19T11:12:42.677Z,9.46
2019-02-19T11:13:42.650Z,9.52
2019-02-19T11:14:42.673Z,9.48
2019-02-19T11:15:42.613Z,9.50
2019-02-19T11:16:42.618Z,9.49
2019-02-19T11:17:42.634Z,9.52
2019-02-19T11:18:42.605Z,9.45
2019-02-19T11:19:42.626Z,9.50
2019-02-19T11:20:42.615Z,9.50
2019-02-19T11:21:42.573Z,9.48
2019-02-19T11:22:42.620Z,9.50
2019-02-19T11:23:42.563Z,9.52
2019-02-19T11:24:42.550Z,9.52
2019-02-19T11:25:42.575Z,9.49
2019-02-19T11:26:42.553Z,9.48
2019-02-19T11:27:42.558Z,9.49
2019-02-19T11:28:42.520Z,9.34
2019-02-19T11:29:42.526Z,9.46
2019-02-19T11:30:42.507Z,9.57
2019-02-19T11:31:42.525Z,9.46
2019-02-19T11:32:42.525Z,9.57
2019-02-19T11:33:42.490Z,9.56
2019-02-19T11:34:42.476Z,9.66
2019-02-19T11:35:51.127Z,9.64
2019-02-19T11:37:46.981Z,9.61
2019-02-19T11:38:55.590Z,9.61
2019-02-19T11:40:51.571Z,9.70
2019-02-19T11:41:51.431Z,9.66
2019-02-19T11:42:51.409Z,9.64
2019-02-19T11:43:51.450Z,9.64
2019-02-19T11:44:51.384Z,9.66
2019-02-19T11:45:51.377Z,9.58
2019-02-19T11:46:51.377Z,9.64
2019-02-19T11:47:51.375Z,9.78
2019-02-19T11:48:51.361Z,9.75
2019-02-19T11:49:51.352Z,9.64
2019-02-19T11:50:51.559Z,9.66
2019-02-19T11:51:51.348Z,9.71
2019-02-19T11:52:51.328Z,9.70
2019-02-19T11:53:51.342Z,9.70
2019-02-19T11:54:51.336Z,9.76
2019-02-19T11:55:51.333Z,9.79
2019-02-19T11:56:51.326Z,9.78
2019-02-19T11:57:51.302Z,9.78
2019-02-19T11:58:51.304Z,9.83
2019-02-19T11:59:51.302Z,9.79
2019-02-19T12:00:51.289Z,9.68
2019-02-19T12:01:51.279Z,9.71
2019-02-19T12:02:51.275Z,9.79
2019-02-19T12:03:51.251Z,9.75
2019-02-19T12:04:51.249Z,9.78
2019-02-19T12:05:51.247Z,9.64
2019-02-19T12:06:51.257Z,9.70
2019-02-19T12:07:51.219Z,9.64
2019-02-19T12:08:51.305Z,9.64
2019-02-19T12:09:51.214Z,9.66
2019-02-19T12:10:51.201Z,9.58
2019-02-19T12:11:51.207Z,9.58
2019-02-19T12:12:51.206Z,9.67
2019-02-19T12:13:51.215Z,9.60
2019-02-19T12:14:51.202Z,9.61
2019-02-19T12:15:51.179Z,9.75
2019-02-19T12:16:51.157Z,9.67
2019-02-19T12:17:51.149Z,9.64
2019-02-19T12:18:51.163Z,9.73
2019-02-19T12:19:51.136Z,9.68
2019-02-19T12:20:51.855Z,9.67
2019-02-19T12:21:51.114Z,9.61
2019-02-19T12:22:51.112Z,9.66
2019-02-19T12:23:51.113Z,9.71
2019-02-19T12:24:51.136Z,9.73
2019-02-19T12:25:51.089Z,9.70
2019-02-19T12:26:51.091Z,9.71
2019-02-19T12:27:51.127Z,9.79
2019-02-19T12:28:51.094Z,9.81
2019-02-19T12:29:51.066Z,9.73
2019-02-19T12:30:51.065Z,9.78
2019-02-19T12:31:51.046Z,9.81
2019-02-19T12:32:51.046Z,9.68
2019-02-19T12:33:51.059Z,9.70
2019-02-19T12:34:51.045Z,9.71
2019-02-19T12:35:51.055Z,9.73
2019-02-19T12:36:51.041Z,9.68
2019-02-19T12:37:51.060Z,9.71
2019-02-19T12:38:51.001Z,9.71
2019-02-19T12:39:51.045Z,9.67
2019-02-19T12:40:50.998Z,9.64
2019-02-19T12:41:50.971Z,9.71
2019-02-19T12:42:50.968Z,9.73
2019-02-19T12:43:51.114Z,9.76
2019-02-19T12:44:50.985Z,9.64
2019-02-19T12:45:50.948Z,9.83
2019-02-19T12:46:50.946Z,9.79
2019-02-19T12:47:50.936Z,9.97
2019-02-19T12:48:54.634Z,10.00
2019-02-19T12:49:50.939Z,9.82
2019-02-19T12:50:50.925Z,9.86
2019-02-19T12:51:50.931Z,9.82
2019-02-19T12:52:50.903Z,9.94
2019-02-19T12:53:50.921Z,10.01
2019-02-19T12:54:50.918Z,10.06
2019-02-19T12:55:50.902Z,10.03
2019-02-19T12:56:50.881Z,10.01
2019-02-19T12:57:50.866Z,10.04
2019-02-19T12:58:50.856Z,10.04
2019-02-19T12:59:56.588Z,10.01
2019-02-19T13:00:50.860Z,10.09
2019-02-19T13:01:50.856Z,10.00
2019-02-19T13:02:50.843Z,10.04
2019-02-19T13:03:50.856Z,9.94
2019-02-19T13:04:50.823Z,9.99
2019-02-19T13:05:50.831Z,10.03
2019-02-19T13:06:50.810Z,10.01
2019-02-19T13:07:50.814Z,9.86
2019-02-19T13:08:50.803Z,9.97
2019-02-19T13:09:50.780Z,10.09
2019-02-19T13:10:50.874Z,10.07
2019-02-19T13:11:50.756Z,9.99
2019-02-19T13:12:50.801Z,10.21
2019-02-19T13:13:50.751Z,10.15
2019-02-19T13:14:50.772Z,10.21
2019-02-19T13:15:50.762Z,10.15
2019-02-19T13:16:50.733Z,10.21
2019-02-19T13:17:50.726Z,10.14
2019-02-19T13:18:50.717Z,10.17
2019-02-19T13:19:50.736Z,10.22
2019-02-19T13:20:50.762Z,10.18
2019-02-19T13:21:50.703Z,10.14
2019-02-19T13:22:50.704Z,10.18
2019-02-19T13:23:50.702Z,10.32
2019-02-19T13:24:50.673Z,10.19
2019-02-19T13:25:50.677Z,10.19
2019-02-19T13:26:50.655Z,10.26
2019-02-19T13:27:50.657Z,10.39
2019-02-19T13:28:50.658Z,10.47
2019-02-19T13:29:50.650Z,10.59
2019-02-19T13:30:50.662Z,10.52
2019-02-19T13:31:50.638Z,10.40
2019-02-19T13:32:50.622Z,10.39
2019-02-19T13:33:50.617Z,10.44
2019-02-19T13:34:50.619Z,10.40
2019-02-19T13:35:50.799Z,10.40
2019-02-19T13:36:50.605Z,10.52
2019-02-19T13:37:50.588Z,10.60
2019-02-19T13:38:50.596Z,10.42
2019-02-19T13:39:50.578Z,10.52
2019-02-19T13:40:50.579Z,10.51